1NK2 weather

Oneida City Hospital Heliport
Oneida, New York, United States

Public forecast

Using degrees Fahrenheit for public forecast. Weather courtesy of forecast.io.

Closest aviation weather report (METAR) to Oneida City Hospital Heliport

Closest report is Griffiss International Airport, 14.4 nm (26.7 km) NE. Retrieved 2019/10/18 00:03 UTC (3 minutes ago):

KRME 180003Z 29016G27KT 10SM BKN015 OVC021 08/08 A2954 RMK AO2 PK WND 31027/0001 T00830078

Closest aviation forecast (TAF) to Oneida City Hospital Heliport

Closest forecast is Griffiss International Airport, 14.4 nm (26.7 km) NE. Retrieved 2019-10-18 00:30 UTC (0 seconds ago):

TAF KRME 172328Z 1800/1824 30014KT 6SM -RA BR OVC015 FM181100 30012KT P6SM OVC012 FM181500 30013G20KT P6SM OVC025 FM182300 29011KT P6SM BKN028